sensor_id;sensor_type;location;lat;lon;timestamp;temperature;humidity
53645;DHT22;39547;45.554;12.068;2022-11-20T00:06:00;9.80;83.60
53645;DHT22;39547;45.554;12.068;2022-11-20T00:12:01;9.80;83.00
53645;DHT22;39547;45.554;12.068;2022-11-20T00:18:03;9.70;82.80
53645;DHT22;39547;45.554;12.068;2022-11-20T00:24:04;9.80;83.00
53645;DHT22;39547;45.554;12.068;2022-11-20T00:30:07;9.70;82.80
53645;DHT22;39547;45.554;12.068;2022-11-20T00:36:10;9.70;82.20
53645;DHT22;39547;45.554;12.068;2022-11-20T00:42:12;9.70;82.30
53645;DHT22;39547;45.554;12.068;2022-11-20T00:48:13;9.80;83.50
53645;DHT22;39547;45.554;12.068;2022-11-20T00:54:15;9.80;84.20
53645;DHT22;39547;45.554;12.068;2022-11-20T01:00:16;9.80;84.40
53645;DHT22;39547;45.554;12.068;2022-11-20T01:06:26;9.80;84.60
53645;DHT22;39547;45.554;12.068;2022-11-20T01:12:28;9.80;84.90
53645;DHT22;39547;45.554;12.068;2022-11-20T01:18:29;9.80;83.60
53645;DHT22;39547;45.554;12.068;2022-11-20T01:24:31;9.80;84.40
53645;DHT22;39547;45.554;12.068;2022-11-20T01:30:32;9.70;84.80
53645;DHT22;39547;45.554;12.068;2022-11-20T01:36:35;9.70;85.10
53645;DHT22;39547;45.554;12.068;2022-11-20T01:42:37;9.70;85.40
53645;DHT22;39547;45.554;12.068;2022-11-20T01:49:04;9.70;84.90
53645;DHT22;39547;45.554;12.068;2022-11-20T01:55:16;9.70;85.00
53645;DHT22;39547;45.554;12.068;2022-11-20T02:01:18;9.70;83.70
53645;DHT22;39547;45.554;12.068;2022-11-20T02:07:22;9.70;84.60
53645;DHT22;39547;45.554;12.068;2022-11-20T02:13:24;9.70;84.60
53645;DHT22;39547;45.554;12.068;2022-11-20T02:19:44;9.70;84.90
53645;DHT22;39547;45.554;12.068;2022-11-20T02:25:46;9.70;84.10
53645;DHT22;39547;45.554;12.068;2022-11-20T02:31:48;9.60;83.50
53645;DHT22;39547;45.554;12.068;2022-11-20T02:37:53;9.50;84.30
53645;DHT22;39547;45.554;12.068;2022-11-20T02:43:55;9.60;84.90
53645;DHT22;39547;45.554;12.068;2022-11-20T02:49:56;9.50;84.70
53645;DHT22;39547;45.554;12.068;2022-11-20T02:55:57;9.50;85.00
53645;DHT22;39547;45.554;12.068;2022-11-20T03:01:59;9.50;83.70
53645;DHT22;39547;45.554;12.068;2022-11-20T03:08:00;9.40;84.90
53645;DHT22;39547;45.554;12.068;2022-11-20T03:14:03;9.30;85.40
53645;DHT22;39547;45.554;12.068;2022-11-20T03:20:05;9.20;85.40
53645;DHT22;39547;45.554;12.068;2022-11-20T03:26:14;9.20;85.50
53645;DHT22;39547;45.554;12.068;2022-11-20T03:32:16;9.00;85.70
53645;DHT22;39547;45.554;12.068;2022-11-20T03:38:18;8.90;85.80
53645;DHT22;39547;45.554;12.068;2022-11-20T03:44:21;8.90;86.00
53645;DHT22;39547;45.554;12.068;2022-11-20T03:50:22;8.80;85.60
53645;DHT22;39547;45.554;12.068;2022-11-20T03:56:26;8.70;85.50
53645;DHT22;39547;45.554;12.068;2022-11-20T04:02:28;8.60;85.60
53645;DHT22;39547;45.554;12.068;2022-11-20T04:08:30;8.50;84.70
53645;DHT22;39547;45.554;12.068;2022-11-20T04:14:31;8.40;84.40
53645;DHT22;39547;45.554;12.068;2022-11-20T04:20:33;8.40;85.00
53645;DHT22;39547;45.554;12.068;2022-11-20T04:26:34;8.30;85.20
53645;DHT22;39547;45.554;12.068;2022-11-20T04:32:36;8.30;85.60
53645;DHT22;39547;45.554;12.068;2022-11-20T04:38:38;8.20;84.70
53645;DHT22;39547;45.554;12.068;2022-11-20T04:44:40;8.20;85.80
53645;DHT22;39547;45.554;12.068;2022-11-20T04:50:42;8.30;86.20
53645;DHT22;39547;45.554;12.068;2022-11-20T04:56:43;8.20;85.20
53645;DHT22;39547;45.554;12.068;2022-11-20T05:02:44;8.20;85.50
53645;DHT22;39547;45.554;12.068;2022-11-20T05:08:46;8.20;85.00
53645;DHT22;39547;45.554;12.068;2022-11-20T05:14:47;8.10;85.00
53645;DHT22;39547;45.554;12.068;2022-11-20T05:20:55;8.10;85.40
53645;DHT22;39547;45.554;12.068;2022-11-20T05:26:57;8.00;85.60
53645;DHT22;39547;45.554;12.068;2022-11-20T05:32:58;8.00;86.00
53645;DHT22;39547;45.554;12.068;2022-11-20T05:38:59;8.10;86.10
53645;DHT22;39547;45.554;12.068;2022-11-20T05:45:03;8.00;85.90
53645;DHT22;39547;45.554;12.068;2022-11-20T05:51:07;8.00;85.50
53645;DHT22;39547;45.554;12.068;2022-11-20T05:57:08;8.00;84.60
53645;DHT22;39547;45.554;12.068;2022-11-20T06:03:10;7.90;85.20
53645;DHT22;39547;45.554;12.068;2022-11-20T06:09:11;7.90;85.00
53645;DHT22;39547;45.554;12.068;2022-11-20T06:15:13;7.90;84.60
53645;DHT22;39547;45.554;12.068;2022-11-20T06:21:19;7.90;85.40
53645;DHT22;39547;45.554;12.068;2022-11-20T06:27:21;7.90;85.20
53645;DHT22;39547;45.554;12.068;2022-11-20T06:33:22;7.80;85.20
53645;DHT22;39547;45.554;12.068;2022-11-20T06:39:24;7.80;85.80
53645;DHT22;39547;45.554;12.068;2022-11-20T06:45:25;7.90;86.10
53645;DHT22;39547;45.554;12.068;2022-11-20T06:51:27;7.90;86.30
53645;DHT22;39547;45.554;12.068;2022-11-20T06:57:29;7.90;86.30
53645;DHT22;39547;45.554;12.068;2022-11-20T07:03:30;7.90;86.30
53645;DHT22;39547;45.554;12.068;2022-11-20T07:09:32;8.00;86.40
53645;DHT22;39547;45.554;12.068;2022-11-20T07:15:35;7.90;86.40
53645;DHT22;39547;45.554;12.068;2022-11-20T07:21:36;7.90;86.50
53645;DHT22;39547;45.554;12.068;2022-11-20T07:27:37;7.90;86.20
53645;DHT22;39547;45.554;12.068;2022-11-20T07:33:39;7.90;86.50
53645;DHT22;39547;45.554;12.068;2022-11-20T07:39:40;7.90;86.60
53645;DHT22;39547;45.554;12.068;2022-11-20T07:45:42;7.90;86.80
53645;DHT22;39547;45.554;12.068;2022-11-20T07:51:43;7.90;86.80
53645;DHT22;39547;45.554;12.068;2022-11-20T07:57:44;8.00;86.80
53645;DHT22;39547;45.554;12.068;2022-11-20T08:03:46;8.00;86.90
53645;DHT22;39547;45.554;12.068;2022-11-20T08:09:47;8.10;86.90
53645;DHT22;39547;45.554;12.068;2022-11-20T08:15:50;8.20;86.50
53645;DHT22;39547;45.554;12.068;2022-11-20T08:21:52;8.20;86.10
53645;DHT22;39547;45.554;12.068;2022-11-20T08:27:53;8.20;86.50
53645;DHT22;39547;45.554;12.068;2022-11-20T08:33:55;8.30;86.40
53645;DHT22;39547;45.554;12.068;2022-11-20T08:39:57;8.30;86.40
53645;DHT22;39547;45.554;12.068;2022-11-20T08:45:58;8.60;86.20
53645;DHT22;39547;45.554;12.068;2022-11-20T08:51:59;8.90;84.50
53645;DHT22;39547;45.554;12.068;2022-11-20T08:58:05;9.20;84.90
53645;DHT22;39547;45.554;12.068;2022-11-20T09:04:07;9.40;84.30
53645;DHT22;39547;45.554;12.068;2022-11-20T09:10:08;9.60;83.90
53645;DHT22;39547;45.554;12.068;2022-11-20T09:16:11;9.80;84.10
53645;DHT22;39547;45.554;12.068;2022-11-20T09:22:12;10.00;84.00
53645;DHT22;39547;45.554;12.068;2022-11-20T09:28:13;10.20;83.90
53645;DHT22;39547;45.554;12.068;2022-11-20T09:34:15;10.50;83.60
53645;DHT22;39547;45.554;12.068;2022-11-20T09:40:22;10.60;81.30
53645;DHT22;39547;45.554;12.068;2022-11-20T09:46:40;10.80;80.60
53645;DHT22;39547;45.554;12.068;2022-11-20T09:59:05;11.20;80.90
53645;DHT22;39547;45.554;12.068;2022-11-20T10:05:23;11.40;81.60
53645;DHT22;39547;45.554;12.068;2022-11-20T10:11:46;11.60;81.30
53645;DHT22;39547;45.554;12.068;2022-11-20T10:30:25;12.20;81.60
53645;DHT22;39547;45.554;12.068;2022-11-20T10:36:30;12.40;80.70
53645;DHT22;39547;45.554;12.068;2022-11-20T10:42:43;12.50;81.20
53645;DHT22;39547;45.554;12.068;2022-11-20T10:48:46;12.70;81.30
53645;DHT22;39547;45.554;12.068;2022-11-20T11:00:52;12.80;77.70
53645;DHT22;39547;45.554;12.068;2022-11-20T11:07:10;12.80;78.50
53645;DHT22;39547;45.554;12.068;2022-11-20T11:13:24;13.00;79.10
53645;DHT22;39547;45.554;12.068;2022-11-20T11:19:26;13.10;78.50
53645;DHT22;39547;45.554;12.068;2022-11-20T11:31:33;13.20;77.60
53645;DHT22;39547;45.554;12.068;2022-11-20T11:37:37;13.30;78.20
53645;DHT22;39547;45.554;12.068;2022-11-20T11:43:40;13.50;76.90
53645;DHT22;39547;45.554;12.068;2022-11-20T11:56:11;13.60;74.80
53645;DHT22;39547;45.554;12.068;2022-11-20T12:08:59;13.80;71.90
53645;DHT22;39547;45.554;12.068;2022-11-20T12:15:06;13.80;71.70
53645;DHT22;39547;45.554;12.068;2022-11-20T12:47:23;13.90;70.50
53645;DHT22;39547;45.554;12.068;2022-11-20T12:54:39;14.00;71.30
53645;DHT22;39547;45.554;12.068;2022-11-20T13:00:21;14.00;69.40
53645;DHT22;39547;45.554;12.068;2022-11-20T13:06:24;14.00;71.30
53645;DHT22;39547;45.554;12.068;2022-11-20T13:12:42;14.00;70.80
53645;DHT22;39547;45.554;12.068;2022-11-20T13:18:46;14.00;71.40
53645;DHT22;39547;45.554;12.068;2022-11-20T13:24:51;14.00;70.40
53645;DHT22;39547;45.554;12.068;2022-11-20T13:30:54;13.80;71.20
53645;DHT22;39547;45.554;12.068;2022-11-20T13:36:58;13.70;71.10
53645;DHT22;39547;45.554;12.068;2022-11-20T13:43:21;13.70;72.00
53645;DHT22;39547;45.554;12.068;2022-11-20T13:56:05;13.30;73.60
53645;DHT22;39547;45.554;12.068;2022-11-20T14:02:15;13.20;74.10
53645;DHT22;39547;45.554;12.068;2022-11-20T14:08:27;13.00;74.30
53645;DHT22;39547;45.554;12.068;2022-11-20T14:14:32;12.90;74.60
53645;DHT22;39547;45.554;12.068;2022-11-20T14:20:34;12.70;74.80
53645;DHT22;39547;45.554;12.068;2022-11-20T14:26:44;12.70;75.30
53645;DHT22;39547;45.554;12.068;2022-11-20T14:32:47;12.60;75.80
53645;DHT22;39547;45.554;12.068;2022-11-20T14:38:50;12.50;76.00
53645;DHT22;39547;45.554;12.068;2022-11-20T14:44:59;12.40;76.00
53645;DHT22;39547;45.554;12.068;2022-11-20T14:51:02;12.30;76.40
53645;DHT22;39547;45.554;12.068;2022-11-20T14:57:04;12.20;76.60
53645;DHT22;39547;45.554;12.068;2022-11-20T15:03:15;12.10;77.20
53645;DHT22;39547;45.554;12.068;2022-11-20T15:09:17;11.90;77.70
53645;DHT22;39547;45.554;12.068;2022-11-20T15:15:43;11.80;77.90
53645;DHT22;39547;45.554;12.068;2022-11-20T15:21:45;11.70;78.40
53645;DHT22;39547;45.554;12.068;2022-11-20T15:27:49;11.60;78.70
53645;DHT22;39547;45.554;12.068;2022-11-20T15:33:51;11.50;79.00
53645;DHT22;39547;45.554;12.068;2022-11-20T15:39:52;11.30;79.30
53645;DHT22;39547;45.554;12.068;2022-11-20T15:46:00;11.20;79.60
53645;DHT22;39547;45.554;12.068;2022-11-20T15:52:03;11.20;80.00
53645;DHT22;39547;45.554;12.068;2022-11-20T15:58:04;11.00;80.40
53645;DHT22;39547;45.554;12.068;2022-11-20T16:04:10;10.90;80.70
53645;DHT22;39547;45.554;12.068;2022-11-20T16:10:12;10.80;80.90
53645;DHT22;39547;45.554;12.068;2022-11-20T16:16:33;10.70;81.20
53645;DHT22;39547;45.554;12.068;2022-11-20T16:22:35;10.60;81.60
53645;DHT22;39547;45.554;12.068;2022-11-20T16:28:36;10.40;81.60
53645;DHT22;39547;45.554;12.068;2022-11-20T16:34:38;10.30;81.70
53645;DHT22;39547;45.554;12.068;2022-11-20T16:40:39;10.20;81.90
53645;DHT22;39547;45.554;12.068;2022-11-20T16:46:41;10.10;82.00
53645;DHT22;39547;45.554;12.068;2022-11-20T16:52:42;10.00;82.20
53645;DHT22;39547;45.554;12.068;2022-11-20T16:58:45;10.00;82.40
53645;DHT22;39547;45.554;12.068;2022-11-20T17:04:47;9.80;82.50
53645;DHT22;39547;45.554;12.068;2022-11-20T17:10:48;9.80;82.60
53645;DHT22;39547;45.554;12.068;2022-11-20T17:16:49;9.70;82.60
53645;DHT22;39547;45.554;12.068;2022-11-20T17:22:51;9.70;82.90
53645;DHT22;39547;45.554;12.068;2022-11-20T17:35:05;9.70;83.10
53645;DHT22;39547;45.554;12.068;2022-11-20T17:41:11;9.70;83.20
53645;DHT22;39547;45.554;12.068;2022-11-20T17:47:13;9.60;83.00
53645;DHT22;39547;45.554;12.068;2022-11-20T17:53:14;9.60;83.10
53645;DHT22;39547;45.554;12.068;2022-11-20T17:59:16;9.60;83.00
53645;DHT22;39547;45.554;12.068;2022-11-20T18:05:18;9.60;83.30
53645;DHT22;39547;45.554;12.068;2022-11-20T18:11:31;9.50;83.30
53645;DHT22;39547;45.554;12.068;2022-11-20T18:17:36;9.40;83.30
53645;DHT22;39547;45.554;12.068;2022-11-20T18:23:37;9.30;83.40
53645;DHT22;39547;45.554;12.068;2022-11-20T18:29:39;9.20;83.60
53645;DHT22;39547;45.554;12.068;2022-11-20T18:35:40;9.20;83.70
53645;DHT22;39547;45.554;12.068;2022-11-20T18:41:43;9.10;83.80
53645;DHT22;39547;45.554;12.068;2022-11-20T18:48:03;9.00;83.80
53645;DHT22;39547;45.554;12.068;2022-11-20T18:54:05;8.90;84.00
53645;DHT22;39547;45.554;12.068;2022-11-20T19:00:08;8.90;84.20
53645;DHT22;39547;45.554;12.068;2022-11-20T19:06:13;8.90;84.20
53645;DHT22;39547;45.554;12.068;2022-11-20T19:12:15;8.90;84.20
53645;DHT22;39547;45.554;12.068;2022-11-20T19:18:16;8.90;84.00
53645;DHT22;39547;45.554;12.068;2022-11-20T19:24:18;8.90;83.40
53645;DHT22;39547;45.554;12.068;2022-11-20T19:30:19;8.90;83.60
53645;DHT22;39547;45.554;12.068;2022-11-20T19:36:40;8.90;83.40
53645;DHT22;39547;45.554;12.068;2022-11-20T19:42:42;8.80;83.80
53645;DHT22;39547;45.554;12.068;2022-11-20T19:48:43;8.80;84.10
53645;DHT22;39547;45.554;12.068;2022-11-20T19:54:45;8.80;84.20
53645;DHT22;39547;45.554;12.068;2022-11-20T20:00:46;8.70;84.30
53645;DHT22;39547;45.554;12.068;2022-11-20T20:06:47;8.70;84.40
53645;DHT22;39547;45.554;12.068;2022-11-20T20:12:50;8.60;84.50
53645;DHT22;39547;45.554;12.068;2022-11-20T20:19:00;8.50;84.70
53645;DHT22;39547;45.554;12.068;2022-11-20T20:25:01;8.40;84.80
53645;DHT22;39547;45.554;12.068;2022-11-20T20:31:08;8.30;85.00
53645;DHT22;39547;45.554;12.068;2022-11-20T20:37:09;8.30;85.20
53645;DHT22;39547;45.554;12.068;2022-11-20T20:43:11;8.30;85.20
53645;DHT22;39547;45.554;12.068;2022-11-20T20:49:12;8.30;85.30
53645;DHT22;39547;45.554;12.068;2022-11-20T20:55:14;8.20;85.40
53645;DHT22;39547;45.554;12.068;2022-11-20T21:01:17;8.20;85.50
53645;DHT22;39547;45.554;12.068;2022-11-20T21:07:19;8.20;85.70
53645;DHT22;39547;45.554;12.068;2022-11-20T21:13:22;8.40;85.80
53645;DHT22;39547;45.554;12.068;2022-11-20T21:19:24;8.50;85.70
53645;DHT22;39547;45.554;12.068;2022-11-20T21:25:25;8.50;85.70
53645;DHT22;39547;45.554;12.068;2022-11-20T21:31:27;8.70;85.90
53645;DHT22;39547;45.554;12.068;2022-11-20T21:37:30;8.70;85.90
53645;DHT22;39547;45.554;12.068;2022-11-20T21:43:32;8.80;85.90
53645;DHT22;39547;45.554;12.068;2022-11-20T21:49:33;8.90;85.80
53645;DHT22;39547;45.554;12.068;2022-11-20T21:55:35;8.90;85.70
53645;DHT22;39547;45.554;12.068;2022-11-20T22:01:37;8.80;85.40
53645;DHT22;39547;45.554;12.068;2022-11-20T22:07:42;8.80;85.70
53645;DHT22;39547;45.554;12.068;2022-11-20T22:13:45;8.80;85.40
53645;DHT22;39547;45.554;12.068;2022-11-20T22:20:06;8.70;85.60
53645;DHT22;39547;45.554;12.068;2022-11-20T22:26:12;8.70;85.40
53645;DHT22;39547;45.554;12.068;2022-11-20T22:32:14;8.70;85.00
53645;DHT22;39547;45.554;12.068;2022-11-20T22:38:15;8.70;85.30
53645;DHT22;39547;45.554;12.068;2022-11-20T22:44:17;8.70;85.50
53645;DHT22;39547;45.554;12.068;2022-11-20T22:50:18;8.70;85.50
53645;DHT22;39547;45.554;12.068;2022-11-20T22:56:20;8.70;85.70
53645;DHT22;39547;45.554;12.068;2022-11-20T23:02:22;8.80;85.50
53645;DHT22;39547;45.554;12.068;2022-11-20T23:08:23;8.80;85.30
53645;DHT22;39547;45.554;12.068;2022-11-20T23:14:25;8.70;84.70
53645;DHT22;39547;45.554;12.068;2022-11-20T23:20:26;8.60;85.30
53645;DHT22;39547;45.554;12.068;2022-11-20T23:26:30;8.50;85.50
53645;DHT22;39547;45.554;12.068;2022-11-20T23:32:32;8.40;85.60
53645;DHT22;39547;45.554;12.068;2022-11-20T23:38:33;8.30;85.80
53645;DHT22;39547;45.554;12.068;2022-11-20T23:44:35;8.20;85.90
53645;DHT22;39547;45.554;12.068;2022-11-20T23:50:36;8.20;86.00
53645;DHT22;39547;45.554;12.068;2022-11-20T23:56:38;8.20;86.10
